Terminal Aerodrome Forecast
Issued by NWS Duluth, MN

Home | Current Version | Previous Version | Text Only | Print | Product List | Glossary On
Versions: 1 2 3 4 5 6 7 8 9 10 11 12 13 14 15 16 17 18 19 20 21 22 23 24 25 26 27 28 29 30 31 32 33 34 35 36 37
000
FTUS43 KDLH 301700
TAFDLH
TAF
KDLH 301720Z 3018/3118 03005KT P6SM OVC015
     FM302100 09007KT P6SM BKN040
     FM310000 10005KT P6SM SCT040
     FM310600 11003KT 6SM BR FEW002
     FM310900 11003KT 2SM BR SCT002
     FM311300 11006KT 4SM BR FEW002 OVC015=

USA.gov is the U.S. government's official web portal to all federal, state and local government web resources and services.